createdAt,value
2019-03-20T00:01:04.289Z,79.69
2019-03-20T00:03:37.818Z,79.27
2019-03-20T00:06:11.359Z,79.10
2019-03-20T00:08:44.698Z,79.39
2019-03-20T00:11:18.180Z,79.37
2019-03-20T00:13:51.640Z,79.48
2019-03-20T00:16:25.156Z,79.65
2019-03-20T00:18:58.516Z,79.77
2019-03-20T00:21:31.998Z,79.47
2019-03-20T00:24:05.408Z,79.96
2019-03-20T00:26:38.844Z,80.68
2019-03-20T00:29:12.264Z,80.25
2019-03-20T00:31:45.688Z,80.38
2019-03-20T00:34:19.133Z,80.78
2019-03-20T00:36:52.456Z,80.66
2019-03-20T00:39:25.954Z,80.42
2019-03-20T00:41:59.354Z,81.01
2019-03-20T00:44:32.834Z,81.77
2019-03-20T00:47:06.275Z,81.60
2019-03-20T00:49:39.698Z,82.11
2019-03-20T00:52:13.117Z,81.05
2019-03-20T00:54:46.574Z,80.59
2019-03-20T00:57:19.974Z,80.38
2019-03-20T00:59:53.340Z,80.77
2019-03-20T01:02:26.687Z,80.76
2019-03-20T01:05:00.175Z,81.37
2019-03-20T01:07:33.702Z,82.16
2019-03-20T01:10:10.450Z,82.77
2019-03-20T01:12:43.960Z,82.75
2019-03-20T01:15:17.467Z,82.93
2019-03-20T01:17:50.927Z,82.22
2019-03-20T01:20:24.747Z,81.68
2019-03-20T01:22:58.150Z,82.04
2019-03-20T01:25:31.739Z,82.25
2019-03-20T01:28:05.181Z,82.89
2019-03-20T01:30:40.296Z,83.49
2019-03-20T01:33:14.270Z,83.59
2019-03-20T01:35:47.707Z,83.60
2019-03-20T01:38:21.128Z,83.54
2019-03-20T01:40:54.582Z,82.89
2019-03-20T01:43:28.021Z,83.05
2019-03-20T01:46:01.440Z,82.61
2019-03-20T01:48:34.794Z,83.08
2019-03-20T01:51:20.408Z,85.28
2019-03-20T01:53:53.760Z,85.64
2019-03-20T01:56:27.111Z,85.92
2019-03-20T01:59:00.473Z,85.44
2019-03-20T02:01:33.964Z,84.26
2019-03-20T02:04:07.421Z,82.80
2019-03-20T02:06:40.790Z,82.90
2019-03-20T02:09:14.141Z,82.41
2019-03-20T02:11:47.601Z,82.23
2019-03-20T02:14:21.010Z,82.44
2019-03-20T02:16:54.532Z,82.81
2019-03-20T02:19:27.913Z,82.59
2019-03-20T02:22:01.250Z,82.10
2019-03-20T02:24:34.615Z,82.35
2019-03-20T02:27:08.606Z,82.47
2019-03-20T02:29:42.072Z,82.79
2019-03-20T02:32:15.504Z,83.09
2019-03-20T02:34:48.861Z,83.39
2019-03-20T02:37:22.315Z,83.03
2019-03-20T02:39:55.656Z,83.47
2019-03-20T02:42:29.132Z,83.16
2019-03-20T02:45:02.515Z,83.06
2019-03-20T02:47:35.906Z,82.95
2019-03-20T02:50:10.650Z,83.10
2019-03-20T02:52:44.016Z,83.72
2019-03-20T02:55:17.484Z,84.57
2019-03-20T02:57:50.901Z,84.87
2019-03-20T03:00:24.433Z,84.21
2019-03-20T03:02:57.854Z,83.63
2019-03-20T03:05:31.344Z,84.43
2019-03-20T03:08:04.834Z,85.19
2019-03-20T03:10:38.263Z,85.40
2019-03-20T03:13:11.701Z,84.89
2019-03-20T03:15:45.151Z,85.25
2019-03-20T03:18:18.563Z,85.31
2019-03-20T03:20:51.955Z,85.10
2019-03-20T03:23:25.308Z,85.27
2019-03-20T03:25:58.732Z,85.27
2019-03-20T03:28:32.125Z,85.21
2019-03-20T03:31:05.623Z,84.96
2019-03-20T03:33:38.978Z,84.66
2019-03-20T03:36:21.115Z,84.84
2019-03-20T03:38:47.487Z,85.12
2019-03-20T03:41:20.936Z,85.23
2019-03-20T03:43:54.390Z,85.04
2019-03-20T03:46:28.291Z,85.24
2019-03-20T03:49:01.717Z,85.31
2019-03-20T03:51:35.219Z,85.02
2019-03-20T03:54:08.582Z,84.59
2019-03-20T03:56:42.037Z,84.70
2019-03-20T03:59:15.385Z,84.80
2019-03-20T04:01:48.734Z,85.03
2019-03-20T04:04:22.089Z,85.19
2019-03-20T04:06:55.564Z,85.38
2019-03-20T04:09:28.987Z,84.95
2019-03-20T04:12:02.437Z,84.94
2019-03-20T04:14:35.796Z,85.24
2019-03-20T04:17:24.354Z,86.02
2019-03-20T04:19:57.764Z,86.23
2019-03-20T04:22:31.235Z,85.86
2019-03-20T04:25:06.219Z,84.88
2019-03-20T04:27:39.601Z,85.11
2019-03-20T04:30:15.722Z,85.47
2019-03-20T04:32:49.257Z,85.23
2019-03-20T04:35:22.613Z,85.64
2019-03-20T04:37:56.062Z,86.28
2019-03-20T04:40:29.507Z,85.85
2019-03-20T04:43:03.256Z,85.38
2019-03-20T04:45:36.639Z,85.84
2019-03-20T04:48:10.005Z,85.76
2019-03-20T04:50:43.420Z,85.90
2019-03-20T04:53:16.866Z,86.21
2019-03-20T04:55:50.307Z,87.06
2019-03-20T04:58:23.701Z,86.78
2019-03-20T05:00:57.146Z,85.60
2019-03-20T05:03:30.647Z,85.73
2019-03-20T05:06:04.098Z,85.84
2019-03-20T05:08:37.591Z,86.00
2019-03-20T05:11:10.956Z,87.24
2019-03-20T05:13:44.378Z,86.90
2019-03-20T05:16:17.781Z,86.18
2019-03-20T05:18:51.260Z,86.70
2019-03-20T05:21:24.606Z,86.84
2019-03-20T05:23:57.975Z,86.94
2019-03-20T05:26:31.472Z,86.32
2019-03-20T05:29:04.903Z,86.32
2019-03-20T05:31:38.265Z,86.25
2019-03-20T05:34:11.760Z,86.35
2019-03-20T05:36:45.135Z,86.51
2019-03-20T05:39:18.476Z,86.76
2019-03-20T05:41:51.994Z,85.80
2019-03-20T05:44:25.330Z,85.47
2019-03-20T05:46:58.722Z,85.50
2019-03-20T05:49:32.073Z,84.90
2019-03-20T05:52:05.443Z,85.12
2019-03-20T05:54:38.777Z,84.35
2019-03-20T05:57:12.742Z,84.44
2019-03-20T05:59:46.070Z,84.47
2019-03-20T06:02:19.481Z,84.65
2019-03-20T06:04:52.886Z,84.28
2019-03-20T06:07:26.382Z,84.07
2019-03-20T06:09:59.730Z,83.81
2019-03-20T06:12:33.110Z,83.74
2019-03-20T06:15:07.524Z,83.57
2019-03-20T06:17:40.881Z,83.19
2019-03-20T06:20:14.868Z,82.93
2019-03-20T06:22:48.226Z,84.53
2019-03-20T06:25:21.788Z,83.94
2019-03-20T06:27:55.233Z,82.96
2019-03-20T06:30:28.584Z,81.86
2019-03-20T06:33:02.068Z,81.16
2019-03-20T06:35:35.473Z,77.43
2019-03-20T06:38:08.976Z,75.44
2019-03-20T06:40:42.402Z,78.69
2019-03-20T06:43:15.871Z,79.97
2019-03-20T06:45:49.270Z,80.08
2019-03-20T06:48:22.705Z,80.25
2019-03-20T06:50:56.067Z,79.78
2019-03-20T06:53:29.486Z,79.22
2019-03-20T06:56:02.916Z,78.98
2019-03-20T06:58:36.444Z,78.03
2019-03-20T07:01:22.190Z,77.06
2019-03-20T07:03:58.744Z,76.61
2019-03-20T07:06:50.283Z,76.13
2019-03-20T07:09:32.637Z,75.63
2019-03-20T07:12:05.961Z,74.95
2019-03-20T07:14:39.314Z,72.45
2019-03-20T07:17:12.660Z,71.58
2019-03-20T07:19:46.087Z,71.37
2019-03-20T07:22:19.437Z,65.35
2019-03-20T07:24:52.876Z,61.79
2019-03-20T07:27:26.302Z,62.01
2019-03-20T07:29:59.747Z,60.51
2019-03-20T07:32:33.159Z,58.42
2019-03-20T07:35:06.605Z,54.60
2019-03-20T07:37:39.962Z,55.38
2019-03-20T07:40:13.395Z,53.51
2019-03-20T07:42:46.743Z,53.98
2019-03-20T07:45:20.216Z,56.61
2019-03-20T07:47:53.559Z,58.97
2019-03-20T07:50:26.920Z,54.35
2019-03-20T07:53:00.270Z,57.00
2019-03-20T07:55:33.758Z,54.74
2019-03-20T07:58:07.253Z,56.25
2019-03-20T08:00:40.621Z,58.32
2019-03-20T08:03:13.957Z,62.06
2019-03-20T08:05:47.402Z,63.60
2019-03-20T08:08:20.759Z,64.49
2019-03-20T08:10:54.113Z,63.18
2019-03-20T08:13:27.542Z,62.96
2019-03-20T08:16:00.984Z,62.78
2019-03-20T08:18:34.451Z,62.90
2019-03-20T08:21:08.059Z,62.30
2019-03-20T08:23:41.522Z,62.12
2019-03-20T08:26:15.023Z,62.46
2019-03-20T08:28:48.381Z,62.93
2019-03-20T08:31:21.839Z,61.99
2019-03-20T08:33:55.173Z,61.53
2019-03-20T08:36:28.628Z,61.05
2019-03-20T08:39:02.059Z,59.96
2019-03-20T08:41:35.487Z,58.51
2019-03-20T08:44:08.886Z,58.92
2019-03-20T08:46:42.312Z,58.96
2019-03-20T08:49:15.728Z,58.88
2019-03-20T08:51:49.187Z,58.55
2019-03-20T08:54:22.618Z,58.43
2019-03-20T08:56:56.118Z,58.47
2019-03-20T08:59:29.535Z,57.70
2019-03-20T09:02:02.970Z,58.67
2019-03-20T09:04:36.386Z,56.98
2019-03-20T09:07:09.918Z,56.05
2019-03-20T09:09:43.254Z,57.35
2019-03-20T09:12:16.601Z,57.04
2019-03-20T09:14:50.053Z,57.93
2019-03-20T09:17:23.519Z,57.79
2019-03-20T09:19:56.871Z,57.98
2019-03-20T09:22:30.359Z,57.45
2019-03-20T09:25:05.324Z,55.95
2019-03-20T09:27:38.776Z,56.96
2019-03-20T09:30:15.406Z,57.10
2019-03-20T09:32:48.836Z,58.73
2019-03-20T09:35:22.281Z,57.57
2019-03-20T09:37:55.705Z,57.71
2019-03-20T09:40:29.743Z,56.47
2019-03-20T09:43:03.150Z,55.47
2019-03-20T09:45:36.601Z,55.44
2019-03-20T09:48:10.028Z,54.51
2019-03-20T09:50:43.390Z,55.14
2019-03-20T09:53:16.926Z,54.18
2019-03-20T09:55:50.320Z,53.40
2019-03-20T09:58:23.789Z,53.49
2019-03-20T10:00:57.277Z,52.35
2019-03-20T10:03:30.760Z,52.92
2019-03-20T10:06:04.188Z,51.74
2019-03-20T10:08:37.614Z,50.88
2019-03-20T10:11:10.964Z,50.98
2019-03-20T10:13:44.306Z,49.11
2019-03-20T10:16:17.752Z,49.61
2019-03-20T10:18:54.145Z,47.04
2019-03-20T10:21:27.613Z,47.45
2019-03-20T10:24:00.940Z,46.05
2019-03-20T10:26:34.402Z,45.62
2019-03-20T10:29:07.742Z,46.01
2019-03-20T10:31:41.220Z,45.00
2019-03-20T10:34:14.630Z,44.39
2019-03-20T10:36:48.089Z,43.51
2019-03-20T10:39:21.396Z,43.18
2019-03-20T10:41:54.895Z,41.14
2019-03-20T10:44:28.214Z,40.04
2019-03-20T10:47:01.926Z,41.52
2019-03-20T10:49:35.418Z,42.70
2019-03-20T10:52:08.786Z,42.03
2019-03-20T10:54:42.210Z,40.95
2019-03-20T10:57:15.620Z,41.83
2019-03-20T10:59:49.048Z,41.50
2019-03-20T11:02:22.510Z,40.28
2019-03-20T11:04:55.986Z,40.94
2019-03-20T11:07:29.433Z,41.24
2019-03-20T11:10:05.104Z,40.97
2019-03-20T11:12:38.483Z,41.40
2019-03-20T11:15:16.906Z,39.95
2019-03-20T11:17:50.235Z,40.53
2019-03-20T11:20:24.655Z,39.83
2019-03-20T11:22:58.108Z,40.71
2019-03-20T11:25:31.569Z,40.62
2019-03-20T11:28:05.021Z,40.97
2019-03-20T11:30:38.521Z,39.68
2019-03-20T11:33:11.978Z,40.44
2019-03-20T11:35:45.478Z,40.60
2019-03-20T11:38:18.932Z,38.81
2019-03-20T11:40:52.421Z,39.49
2019-03-20T11:43:25.957Z,39.68
2019-03-20T11:45:59.317Z,41.09
2019-03-20T11:48:33.471Z,40.59
2019-03-20T11:51:07.009Z,41.35
2019-03-20T11:53:40.430Z,40.39
2019-03-20T11:56:13.850Z,42.24
2019-03-20T11:58:47.234Z,41.84
2019-03-20T12:01:20.654Z,42.78
2019-03-20T12:03:54.023Z,41.21
2019-03-20T12:06:27.365Z,39.97
2019-03-20T12:09:00.798Z,41.20
2019-03-20T12:11:45.215Z,41.41
2019-03-20T12:14:11.211Z,41.02
2019-03-20T12:16:44.819Z,40.65
2019-03-20T12:19:18.287Z,40.83
2019-03-20T12:21:51.648Z,40.97
2019-03-20T12:24:25.189Z,40.03
2019-03-20T12:26:58.552Z,40.20
2019-03-20T12:29:31.915Z,40.86
2019-03-20T12:32:05.372Z,40.71
2019-03-20T12:34:39.087Z,40.02
2019-03-20T12:37:12.433Z,40.21
2019-03-20T12:39:53.025Z,40.17
2019-03-20T12:42:21.013Z,40.16
2019-03-20T12:44:55.381Z,39.53
2019-03-20T12:47:28.793Z,39.22
2019-03-20T12:50:02.166Z,38.47
2019-03-20T12:52:35.607Z,38.97
2019-03-20T12:55:15.042Z,39.16
2019-03-20T12:57:48.399Z,40.64
2019-03-20T13:00:27.668Z,39.60
2019-03-20T13:03:01.123Z,38.95
2019-03-20T13:05:34.495Z,38.94
2019-03-20T13:08:07.837Z,38.59
2019-03-20T13:10:41.409Z,39.19
2019-03-20T13:13:14.864Z,38.79
2019-03-20T13:15:48.323Z,37.71
2019-03-20T13:18:21.733Z,38.86
2019-03-20T13:20:55.177Z,38.36
2019-03-20T13:23:36.732Z,38.52
2019-03-20T13:26:10.124Z,37.94
2019-03-20T13:28:43.695Z,37.93
2019-03-20T13:31:20.284Z,38.01
2019-03-20T13:33:53.710Z,37.87
2019-03-20T13:36:27.153Z,37.51
2019-03-20T13:39:00.567Z,38.05
2019-03-20T13:41:34.127Z,37.12
2019-03-20T13:44:07.469Z,36.94
2019-03-20T13:46:40.845Z,36.61
2019-03-20T13:49:14.296Z,36.09
2019-03-20T13:51:47.771Z,37.25
2019-03-20T13:54:21.185Z,37.08
2019-03-20T13:56:54.696Z,36.97
2019-03-20T13:59:28.104Z,35.88
2019-03-20T14:02:01.536Z,36.82
2019-03-20T14:04:34.955Z,37.41
2019-03-20T14:07:08.336Z,35.92
2019-03-20T14:09:41.679Z,35.28
2019-03-20T14:12:15.139Z,36.27
2019-03-20T14:14:48.548Z,35.52
2019-03-20T14:17:21.986Z,35.47
2019-03-20T14:19:55.401Z,35.65
2019-03-20T14:22:31.620Z,36.11
2019-03-20T14:25:07.827Z,35.68
2019-03-20T14:27:41.306Z,35.46
2019-03-20T14:30:22.806Z,35.81
2019-03-20T14:32:56.325Z,35.31
2019-03-20T14:35:29.731Z,34.89
2019-03-20T14:38:03.261Z,34.39
2019-03-20T14:40:37.117Z,33.79
2019-03-20T14:43:10.667Z,33.44
2019-03-20T14:45:44.113Z,34.42
2019-03-20T14:48:17.533Z,34.20
2019-03-20T14:50:50.946Z,35.28
2019-03-20T14:53:24.307Z,33.56
2019-03-20T14:55:57.656Z,33.57
2019-03-20T14:58:31.060Z,32.91
2019-03-20T15:01:04.502Z,33.73
2019-03-20T15:03:38.038Z,33.01
2019-03-20T15:06:11.402Z,33.42
2019-03-20T15:08:44.867Z,32.85
2019-03-20T15:11:18.309Z,32.97
2019-03-20T15:13:51.654Z,32.88
2019-03-20T15:16:25.052Z,32.54
2019-03-20T15:18:58.394Z,31.45
2019-03-20T15:21:31.904Z,30.83
2019-03-20T15:24:05.327Z,31.03
2019-03-20T15:26:38.763Z,31.04
2019-03-20T15:29:12.170Z,31.21
2019-03-20T15:31:45.702Z,30.29
2019-03-20T15:34:19.172Z,30.54
2019-03-20T15:36:52.648Z,31.28
2019-03-20T15:39:26.042Z,30.54
2019-03-20T15:41:59.595Z,30.03
2019-03-20T15:44:33.047Z,30.83
2019-03-20T15:47:06.535Z,31.15
2019-03-20T15:49:39.894Z,31.03
2019-03-20T15:52:13.310Z,32.23
2019-03-20T15:54:46.675Z,30.84
2019-03-20T15:57:20.208Z,30.78
2019-03-20T15:59:53.618Z,30.24
2019-03-20T16:02:27.215Z,31.97
2019-03-20T16:05:00.605Z,32.05
2019-03-20T16:07:33.933Z,32.04
2019-03-20T16:10:13.490Z,31.59
2019-03-20T16:12:49.783Z,31.99
2019-03-20T16:15:23.897Z,32.46
2019-03-20T16:17:57.453Z,30.38
2019-03-20T16:20:30.837Z,28.18
2019-03-20T16:23:04.584Z,27.01
2019-03-20T16:25:38.013Z,27.38
2019-03-20T16:28:11.436Z,28.55
2019-03-20T16:30:44.915Z,28.59
2019-03-20T16:33:18.370Z,27.81
2019-03-20T16:35:51.710Z,30.62
2019-03-20T16:38:25.164Z,28.56
2019-03-20T16:40:58.502Z,28.79
2019-03-20T16:43:31.909Z,29.67
2019-03-20T16:46:05.275Z,29.57
2019-03-20T16:48:38.644Z,29.98
2019-03-20T16:51:12.007Z,30.63
2019-03-20T16:53:45.499Z,30.90
2019-03-20T16:56:18.852Z,32.41
2019-03-20T16:58:52.258Z,31.50
2019-03-20T17:01:25.704Z,33.69
2019-03-20T17:03:59.078Z,34.74
2019-03-20T17:06:32.481Z,35.53
2019-03-20T17:09:07.163Z,35.08
2019-03-20T17:11:40.623Z,35.38
2019-03-20T17:14:14.108Z,35.44
2019-03-20T17:16:47.459Z,36.73
2019-03-20T17:19:20.828Z,36.39
2019-03-20T17:21:54.233Z,36.42
2019-03-20T17:24:27.650Z,36.18
2019-03-20T17:27:01.057Z,36.99
2019-03-20T17:29:34.601Z,37.10
2019-03-20T17:32:08.040Z,37.76
2019-03-20T17:34:41.460Z,38.48
2019-03-20T17:37:14.827Z,39.27
2019-03-20T17:39:49.224Z,40.27
2019-03-20T17:42:22.928Z,39.39
2019-03-20T17:44:57.908Z,40.05
2019-03-20T17:47:31.252Z,41.79
2019-03-20T17:50:07.791Z,42.08
2019-03-20T17:52:41.179Z,43.86
2019-03-20T17:55:14.598Z,44.75
2019-03-20T17:57:48.452Z,45.48
2019-03-20T18:00:28.220Z,46.26
2019-03-20T18:03:01.683Z,44.69
2019-03-20T18:05:35.184Z,44.81
2019-03-20T18:08:09.295Z,44.52
2019-03-20T18:10:42.829Z,45.36
2019-03-20T18:13:16.344Z,43.82
2019-03-20T18:15:49.803Z,43.97
2019-03-20T18:18:23.264Z,43.60
2019-03-20T18:20:56.709Z,45.57
2019-03-20T18:23:30.223Z,46.49
2019-03-20T18:26:03.638Z,48.28
2019-03-20T18:28:36.995Z,48.80
2019-03-20T18:31:10.476Z,49.09
2019-03-20T18:33:44.214Z,48.58
2019-03-20T18:36:17.698Z,49.04
2019-03-20T18:38:51.104Z,50.35
2019-03-20T18:41:24.453Z,51.24
2019-03-20T18:43:57.828Z,52.23
2019-03-20T18:46:31.255Z,52.58
2019-03-20T18:49:04.779Z,52.31
2019-03-20T18:51:38.351Z,53.22
2019-03-20T18:54:11.878Z,53.43
2019-03-20T18:56:45.256Z,55.07
2019-03-20T18:59:18.717Z,55.43
2019-03-20T19:01:52.206Z,50.60
2019-03-20T19:04:26.133Z,50.13
2019-03-20T19:06:59.683Z,51.30
2019-03-20T19:09:33.293Z,52.84
2019-03-20T19:12:08.759Z,54.45
2019-03-20T19:14:42.106Z,54.58
2019-03-20T19:17:15.679Z,55.03
2019-03-20T19:19:49.160Z,55.27
2019-03-20T19:22:22.620Z,56.83
2019-03-20T19:24:56.103Z,57.17
2019-03-20T19:27:29.480Z,58.21
2019-03-20T19:30:03.224Z,59.41
2019-03-20T19:32:36.631Z,59.53
2019-03-20T19:35:11.526Z,60.52
2019-03-20T19:37:45.105Z,60.77
2019-03-20T19:40:20.248Z,60.53
2019-03-20T19:42:53.714Z,60.51
2019-03-20T19:45:27.140Z,61.14
2019-03-20T19:48:00.568Z,61.33
2019-03-20T19:50:34.068Z,59.09
2019-03-20T19:53:07.487Z,59.80
2019-03-20T19:55:40.946Z,60.68
2019-03-20T19:58:14.379Z,61.43
2019-03-20T20:00:47.800Z,61.41
2019-03-20T20:03:21.244Z,61.20
2019-03-20T20:05:54.649Z,61.48
2019-03-20T20:08:27.965Z,60.08
2019-03-20T20:11:01.403Z,59.59
2019-03-20T20:13:34.851Z,59.31
2019-03-20T20:16:08.301Z,61.13
2019-03-20T20:18:41.792Z,60.28
2019-03-20T20:21:15.347Z,59.58
2019-03-20T20:23:48.758Z,60.44
2019-03-20T20:26:22.271Z,60.09
2019-03-20T20:28:55.771Z,59.37
2019-03-20T20:31:29.246Z,59.39
2019-03-20T20:34:02.634Z,59.32
2019-03-20T20:36:36.060Z,62.44
2019-03-20T20:39:09.466Z,62.57
2019-03-20T20:41:42.914Z,62.93
2019-03-20T20:44:16.360Z,61.89
2019-03-20T20:46:49.814Z,62.06
2019-03-20T20:49:24.392Z,62.62
2019-03-20T20:51:58.028Z,62.67
2019-03-20T20:54:31.826Z,63.25
2019-03-20T20:57:05.515Z,63.94
2019-03-20T20:59:38.944Z,63.53
2019-03-20T21:02:12.344Z,64.20
2019-03-20T21:04:45.678Z,65.82
2019-03-20T21:07:19.041Z,66.52
2019-03-20T21:09:52.456Z,66.00
2019-03-20T21:12:27.382Z,66.40
2019-03-20T21:15:00.789Z,66.10
2019-03-20T21:17:37.353Z,66.90
2019-03-20T21:20:10.760Z,67.19
2019-03-20T21:22:50.312Z,67.59
2019-03-20T21:25:23.787Z,67.83
2019-03-20T21:28:20.033Z,68.32
2019-03-20T21:30:56.578Z,67.86
2019-03-20T21:33:49.702Z,68.19
2019-03-20T21:36:44.533Z,68.38
2019-03-20T21:39:17.968Z,68.05
2019-03-20T21:42:26.559Z,68.04
2019-03-20T21:45:32.009Z,69.06
2019-03-20T21:48:05.424Z,67.84
2019-03-20T21:50:53.904Z,67.78
2019-03-20T21:53:39.307Z,67.89
2019-03-20T21:56:21.460Z,68.07
2019-03-20T21:59:21.019Z,68.01
2019-03-20T22:02:12.640Z,68.67
2019-03-20T22:04:46.106Z,68.88
2019-03-20T22:07:19.421Z,68.17
2019-03-20T22:09:56.010Z,69.03
2019-03-20T22:12:49.034Z,69.39
2019-03-20T22:15:31.445Z,70.06
2019-03-20T22:18:36.949Z,69.72
2019-03-20T22:21:31.622Z,69.27
2019-03-20T22:24:17.259Z,68.86
2019-03-20T22:27:16.731Z,69.11
2019-03-20T22:29:50.071Z,69.88
2019-03-20T22:32:29.623Z,70.09
2019-03-20T22:35:30.503Z,69.14
2019-03-20T22:38:07.391Z,69.38
2019-03-20T22:41:03.786Z,69.59
2019-03-20T22:43:43.335Z,69.66
2019-03-20T22:46:39.339Z,69.84
2019-03-20T22:49:35.601Z,69.56
2019-03-20T22:52:33.502Z,69.98
2019-03-20T22:55:28.001Z,70.68
2019-03-20T22:58:16.309Z,71.10
2019-03-20T23:00:52.885Z,71.64
2019-03-20T23:03:32.283Z,71.57
2019-03-20T23:06:06.568Z,71.50
2019-03-20T23:08:40.018Z,71.54
2019-03-20T23:11:13.476Z,71.34
2019-03-20T23:13:46.839Z,71.40
2019-03-20T23:16:21.416Z,71.47
2019-03-20T23:18:54.924Z,72.29
2019-03-20T23:21:28.288Z,72.16
2019-03-20T23:24:01.667Z,72.33
2019-03-20T23:26:35.111Z,72.09
2019-03-20T23:29:08.547Z,72.43
2019-03-20T23:31:41.984Z,72.74
2019-03-20T23:34:15.382Z,73.18
2019-03-20T23:36:48.753Z,72.77
2019-03-20T23:39:22.134Z,73.07
2019-03-20T23:41:55.545Z,72.50
2019-03-20T23:44:28.903Z,73.15
2019-03-20T23:47:02.254Z,72.93
2019-03-20T23:49:35.691Z,72.58
2019-03-20T23:52:09.108Z,72.97
2019-03-20T23:54:44.207Z,72.89
2019-03-20T23:57:17.691Z,73.26
2019-03-20T23:59:51.057Z,73.05
